Weather observations for the past three days for
Albert Whitted Airport
Imperial (Metric)
Date Time (edt) Wind (mph) Vis. (mi.) Weather Sky Cond. Temperature (ºF) Relative Humidity Wind Chill (°F) Heat Index (°F) Pressure Precipitation (in)
Air Dwpt 6 hour altimeter (in) sea level (mb) 1 hr 3 hr 6 hr
Max. Min.
07 01:53 E 8 10.00 Partly Cloudy SCT012 78.1 72 81 78.1 82% 80 29.98 1015.1
07 00:53 N 6 10.00 Fair CLR 78.1 72 82% 80 29.99 1015.5
06 23:53 N 6 10.00 Fair CLR 78.1 72 82% 80 30 1015.8
06 22:53 N 3 10.00 Fair CLR 79 72 79% 82 29.99 1015.6
06 21:53 NW 3 10.00 Fair CLR 79 73 82% 82 29.98 1015.2
06 20:53 W 9 10.00 Fair CLR 79 72 79% 82 29.98 1015.1
06 19:53 W 10 10.00 Fair CLR 81 72 86 81 74% 85 29.97 1014.9
06 18:53 SW 12 10.00 Fair CLR 82.9 69.1 63% 87 29.97 1014.7
06 17:53 W 10 10.00 Fair CLR 84.9 70 61% 89 29.97 1014.9
06 16:53 SW 9 10.00 Fair CLR 84 71.1 65% 89 29.97 1014.9
06 15:53 W 12 10.00 Fair CLR 84 73 70% 90 29.98 1015.1
06 14:53 SW 10 10.00 Fair CLR 84.9 72 65% 91 29.99 1015.6
06 13:53 SW 9 10.00 Fair CLR 84.9 71.1 87.1 75 63% 90 30.01 1016.2
06 12:53 SW 8 10.00 Fair CLR 84.9 69.1 59% 89 30.02 1016.6
06 11:53 S 7 10.00 Fair CLR 84.9 69.1 59% 89 30.03 1016.7
06 10:53 S 7 10.00 Fair CLR 84 70 63% 88 30.02 1016.6
06 09:53 SE 9 10.00 Fair CLR 80.1 70 71% 83 30.02 1016.4
06 08:53 S 12 10.00 Fair CLR 77 70 79% 79 30.01 1016.3
06 07:53 SE 13 10.00 Fair CLR 75 70 77 73.9 84% 75 29.99 1015.6
06 06:53 SE 10 10.00 Fair CLR 73.9 69.1 85% 29.98 1015.2
06 05:53 S 10 10.00 Fair CLR 73.9 68 82% 29.97 1014.9
06 04:53 SE 10 10.00 Fair CLR 75 68 79% 76 29.97 1014.7
06 03:53 SE 10 10.00 Fair CLR 75.9 66.9 74% 77 29.97 1014.9
06 02:53 SE 12 10.00 Fair CLR 75.9 66 72% 77 29.98 1015.1
06 01:53 SE 14 10.00 Fair CLR 77 66 80.1 77 69% 79 29.99 1015.6
06 00:53 SE 15 10.00 Fair CLR 78.1 41 27% 78 30.01 1016.0
05 23:53 SE 18 10.00 Mostly Cloudy BKN045 79 43 28% 78 30 1015.8
05 22:53 N 6 10.00 Fair CLR 78.1 50 37% 79 30 1015.7
05 21:53 N 5 10.00 Fair CLR 79 48.9 35% 79 29.97 1014.9
05 20:53 N 6 10.00 Fair CLR 80.1 48 33% 79 29.96 1014.4
05 19:53 NW 9 10.00 Fair CLR 81 48 90 81 32% 80 29.94 1013.8
05 18:53 NW 10 10.00 Fair CLR 82.9 46.9 28% 81 29.94 1013.6
05 17:53 Vrbl 7 10.00 Fair CLR 84 46 27% 82 29.94 1013.6
05 16:53 W 6 10.00 Fair CLR 84.9 45 25% 82 29.93 1013.3
05 15:53 Calm 10.00 Fair CLR 89.1 46 23% 86 29.95 1014.0
05 14:53 Calm 10.00 Fair CLR 88 46 23% 85 29.96 1014.4
05 13:53 NE 3 10.00 Fair CLR 86 46 86 73.9 25% 83 29.98 1015.1
05 12:53 SE 5 10.00 Fair CLR 84 45 25% 82 30 1015.8
05 11:53 SE 8 10.00 Mostly Cloudy SCT044 BKN060 82.9 46 27% 81 30 1015.8
05 10:53 SE 10 10.00 Mostly Cloudy BKN038 82 46 28% 80 30 1015.8
05 09:53 SE 13 10.00 Fair CLR 79 45 30% 79 29.99 1015.3
05 08:53 E 13 10.00 Overcast OVC037 75.9 46 35% 78 29.98 1015.2
05 07:53 E 12 10.00 Overcast OVC040 73.9 45 75 73 36% 29.98 1015.3
05 06:53 E 12 10.00 Overcast OVC040 73.9 45 36% 29.96 1014.4
05 05:53 E 12 10.00 Fair CLR 73.9 46 37% 29.94 1014.0
05 04:53 E 12 10.00 Fair CLR 73 45 37% 29.93 1013.5
05 03:53 E 14 10.00 Partly Cloudy SCT049 73.9 44.1 34% 29.93 1013.6
05 02:53 E 12 10.00 Fair CLR 73.9 52 46% 29.95 1014.0
05 01:53 E 13 10.00 Overcast FEW038 BKN046 OVC060 75 64.9 82 75 71% 77 29.97 1014.9
05 00:53 E 12 10.00 Overcast FEW028 OVC040 75 63 66% 77 29.99 1015.4
04 23:53 E 14 10.00 Overcast SCT033 OVC042 75.9 63 64% 78 29.99 1015.5
04 22:53 E 12 10.00 Overcast SCT036 BKN048 OVC075 77 63 62% 79 30 1015.7
04 21:53 E 16 10.00 Mostly Cloudy SCT045 BKN055 BKN070 78.1 64 62% 80 29.98 1015.1
04 20:53 E 18 G 26 10.00 Overcast BKN050 OVC060 80.1 64 58% 82 29.96 1014.4
04 19:53 E 13 10.00 Overcast BKN055 BKN070 OVC090 82 64.9 87.1 82 56% 84 29.92 1013.3
04 18:53 NE 5 10.00 Fair CLR 84 63 49% 85 29.91 1012.8
04 17:53 NE 3 10.00 Fair CLR 86 60.1 42% 86 29.92 1013.0
04 16:53 NE 6 10.00 Fair CLR 86 57.9 39% 85 29.92 1013.2
04 15:53 NE 8 10.00 Fair CLR 84.9 59 42% 85 29.94 1013.8
04 14:53 NE 7 10.00 Fair CLR 82.9 57.9 43% 83 29.96 1014.5
04 13:53 NE 7 10.00 Fair CLR 82.9 57 82.9 73 41% 82 29.99 1015.6
04 12:53 E 13 10.00 Fair CLR 82 57.9 44% 82 30.01 1016.2
04 11:53 E 15 10.00 Fair CLR 81 59 47% 81 30.03 1016.8
04 10:53 E 17 10.00 Fair CLR 78.1 61 56% 80 30.03 1016.9
04 09:53 E 18 10.00 Fair CLR 75.9 62.1 62% 78 30.03 1016.8
04 08:53 NE 17 10.00 Fair CLR 73.9 62.1 67% 30.02 1016.3
04 07:53 E 16 10.00 Fair CLR 73 63 73.9 71.1 71% 30 1015.9
04 06:53 NE 15 10.00 Mostly Cloudy BKN060 72 62.1 71% 29.99 1015.4
04 05:53 N 14 10.00 Fair CLR 72 63 73% 29.98 1015.1
04 04:53 N 9 10.00 Fair CLR 73 62.1 69% 29.97 1015.0
04 03:53 NE 13 10.00 A Few Clouds FEW060 73.9 63 69% 29.98 1015.1
Date Time (edt) Wind (mph) Vis. (mi.) Weather Sky Cond. Air Dwpt Max. Min. Relative Humidity Wind Chill (°F) Heat Index (°F) altimeter (in) sea level (mb) 1 hr 3 hr 6 hr
6 hour
Temperature (ºF) Pressure Precipitation (in)